sensor_id;sensor_type;location;lat;lon;timestamp;P1;durP1;ratioP1;P2;durP2;ratioP2
68432;SDS011;55412;51.350;17.056;2022-09-25T00:00:58;11.82;;;5.78;;
68432;SDS011;55412;51.350;17.056;2022-09-25T00:03:25;12.13;;;5.97;;
68432;SDS011;55412;51.350;17.056;2022-09-25T00:08:32;14.55;;;6.95;;
68432;SDS011;55412;51.350;17.056;2022-09-25T00:11:03;12.05;;;6.65;;
68432;SDS011;55412;51.350;17.056;2022-09-25T00:13:35;14.18;;;7.35;;
68432;SDS011;55412;51.350;17.056;2022-09-25T00:16:02;13.60;;;6.87;;
68432;SDS011;55412;51.350;17.056;2022-09-25T00:18:29;12.90;;;6.55;;
68432;SDS011;55412;51.350;17.056;2022-09-25T00:21:14;12.15;;;5.60;;
68432;SDS011;55412;51.350;17.056;2022-09-25T00:23:41;8.10;;;3.75;;
68432;SDS011;55412;51.350;17.056;2022-09-25T00:26:09;11.93;;;5.13;;
68432;SDS011;55412;51.350;17.056;2022-09-25T00:28:38;13.63;;;5.83;;
68432;SDS011;55412;51.350;17.056;2022-09-25T00:31:05;16.48;;;7.32;;
68432;SDS011;55412;51.350;17.056;2022-09-25T00:33:33;15.25;;;8.32;;
68432;SDS011;55412;51.350;17.056;2022-09-25T00:36:04;18.02;;;8.30;;
68432;SDS011;55412;51.350;17.056;2022-09-25T00:38:33;12.25;;;5.88;;
68432;SDS011;55412;51.350;17.056;2022-09-25T00:41:01;17.43;;;8.03;;
68432;SDS011;55412;51.350;17.056;2022-09-25T00:43:43;19.80;;;9.13;;
68432;SDS011;55412;51.350;17.056;2022-09-25T00:46:19;13.38;;;6.35;;
68432;SDS011;55412;51.350;17.056;2022-09-25T00:49:01;8.18;;;4.20;;
68432;SDS011;55412;51.350;17.056;2022-09-25T00:51:33;11.88;;;6.05;;
68432;SDS011;55412;51.350;17.056;2022-09-25T00:54:09;10.23;;;4.67;;
68432;SDS011;55412;51.350;17.056;2022-09-25T00:56:50;10.65;;;5.22;;
68432;SDS011;55412;51.350;17.056;2022-09-25T00:59:21;11.95;;;6.10;;
68432;SDS011;55412;51.350;17.056;2022-09-25T01:01:54;13.88;;;7.22;;
68432;SDS011;55412;51.350;17.056;2022-09-25T01:04:21;12.85;;;6.10;;
68432;SDS011;55412;51.350;17.056;2022-09-25T01:06:47;13.13;;;6.83;;
68432;SDS011;55412;51.350;17.056;2022-09-25T01:09:15;18.15;;;6.32;;
68432;SDS011;55412;51.350;17.056;2022-09-25T01:11:41;10.95;;;5.75;;
68432;SDS011;55412;51.350;17.056;2022-09-25T01:14:09;11.57;;;6.13;;
68432;SDS011;55412;51.350;17.056;2022-09-25T01:16:43;13.82;;;6.60;;
68432;SDS011;55412;51.350;17.056;2022-09-25T01:22:33;8.75;;;4.93;;
68432;SDS011;55412;51.350;17.056;2022-09-25T01:27:59;12.43;;;5.43;;
68432;SDS011;55412;51.350;17.056;2022-09-25T01:31:09;12.25;;;6.40;;
68432;SDS011;55412;51.350;17.056;2022-09-25T01:33:54;10.73;;;4.90;;
68432;SDS011;55412;51.350;17.056;2022-09-25T01:36:33;9.63;;;4.93;;
68432;SDS011;55412;51.350;17.056;2022-09-25T01:39:13;8.45;;;4.50;;
68432;SDS011;55412;51.350;17.056;2022-09-25T01:44:31;11.90;;;6.07;;
68432;SDS011;55412;51.350;17.056;2022-09-25T01:47:09;10.47;;;4.27;;
68432;SDS011;55412;51.350;17.056;2022-09-25T01:50:16;11.25;;;5.38;;
68432;SDS011;55412;51.350;17.056;2022-09-25T01:52:44;12.02;;;5.20;;
68432;SDS011;55412;51.350;17.056;2022-09-25T01:55:21;11.27;;;5.20;;
68432;SDS011;55412;51.350;17.056;2022-09-25T01:58:04;11.48;;;5.85;;
68432;SDS011;55412;51.350;17.056;2022-09-25T02:00:44;11.90;;;5.80;;
68432;SDS011;55412;51.350;17.056;2022-09-25T02:03:19;12.18;;;5.70;;
68432;SDS011;55412;51.350;17.056;2022-09-25T02:06:09;15.07;;;6.30;;
68432;SDS011;55412;51.350;17.056;2022-09-25T02:08:42;11.23;;;5.57;;
68432;SDS011;55412;51.350;17.056;2022-09-25T02:11:18;11.48;;;5.80;;
68432;SDS011;55412;51.350;17.056;2022-09-25T02:16:19;13.45;;;5.55;;
68432;SDS011;55412;51.350;17.056;2022-09-25T02:18:53;14.05;;;6.70;;
68432;SDS011;55412;51.350;17.056;2022-09-25T02:27:18;12.00;;;5.77;;
68432;SDS011;55412;51.350;17.056;2022-09-25T02:29:47;12.40;;;5.90;;
68432;SDS011;55412;51.350;17.056;2022-09-25T02:32:14;10.43;;;4.45;;
68432;SDS011;55412;51.350;17.056;2022-09-25T02:34:43;9.15;;;5.07;;
68432;SDS011;55412;51.350;17.056;2022-09-25T02:37:16;11.07;;;6.00;;
68432;SDS011;55412;51.350;17.056;2022-09-25T02:39:43;10.07;;;4.67;;
68432;SDS011;55412;51.350;17.056;2022-09-25T02:54:11;11.43;;;6.03;;
68432;SDS011;55412;51.350;17.056;2022-09-25T02:59:36;12.00;;;6.10;;
68432;SDS011;55412;51.350;17.056;2022-09-25T03:02:19;9.85;;;5.28;;
68432;SDS011;55412;51.350;17.056;2022-09-25T03:04:46;15.52;;;5.18;;
68432;SDS011;55412;51.350;17.056;2022-09-25T03:07:14;15.37;;;5.40;;
68432;SDS011;55412;51.350;17.056;2022-09-25T03:09:42;12.38;;;6.05;;
68432;SDS011;55412;51.350;17.056;2022-09-25T03:12:11;12.35;;;6.28;;
68432;SDS011;55412;51.350;17.056;2022-09-25T03:14:38;14.18;;;6.25;;
68432;SDS011;55412;51.350;17.056;2022-09-25T03:17:05;13.13;;;6.03;;
68432;SDS011;55412;51.350;17.056;2022-09-25T03:19:32;13.03;;;6.10;;
68432;SDS011;55412;51.350;17.056;2022-09-25T03:22:02;13.82;;;6.03;;
68432;SDS011;55412;51.350;17.056;2022-09-25T03:24:29;11.43;;;5.80;;
68432;SDS011;55412;51.350;17.056;2022-09-25T03:26:55;10.48;;;5.03;;
68432;SDS011;55412;51.350;17.056;2022-09-25T03:29:21;13.27;;;6.15;;
68432;SDS011;55412;51.350;17.056;2022-09-25T03:31:47;13.63;;;5.80;;
68432;SDS011;55412;51.350;17.056;2022-09-25T03:34:15;11.27;;;5.85;;
68432;SDS011;55412;51.350;17.056;2022-09-25T03:36:43;17.05;;;6.40;;
68432;SDS011;55412;51.350;17.056;2022-09-25T03:39:11;12.52;;;6.22;;
68432;SDS011;55412;51.350;17.056;2022-09-25T03:41:41;14.05;;;5.63;;
68432;SDS011;55412;51.350;17.056;2022-09-25T03:44:08;10.60;;;4.73;;
68432;SDS011;55412;51.350;17.056;2022-09-25T03:46:34;11.40;;;4.97;;
68432;SDS011;55412;51.350;17.056;2022-09-25T03:49:01;9.65;;;5.03;;
68432;SDS011;55412;51.350;17.056;2022-09-25T03:51:28;11.07;;;4.63;;
68432;SDS011;55412;51.350;17.056;2022-09-25T03:53:56;9.25;;;4.55;;
68432;SDS011;55412;51.350;17.056;2022-09-25T03:56:23;10.13;;;4.50;;
68432;SDS011;55412;51.350;17.056;2022-09-25T03:58:52;9.73;;;5.00;;
68432;SDS011;55412;51.350;17.056;2022-09-25T04:01:20;13.40;;;5.82;;
68432;SDS011;55412;51.350;17.056;2022-09-25T04:03:48;9.15;;;4.90;;
68432;SDS011;55412;51.350;17.056;2022-09-25T04:06:17;16.65;;;6.78;;
68432;SDS011;55412;51.350;17.056;2022-09-25T04:08:48;13.63;;;6.63;;
68432;SDS011;55412;51.350;17.056;2022-09-25T04:11:15;15.10;;;6.53;;
68432;SDS011;55412;51.350;17.056;2022-09-25T04:13:43;11.43;;;5.45;;
68432;SDS011;55412;51.350;17.056;2022-09-25T04:16:10;12.88;;;5.80;;
68432;SDS011;55412;51.350;17.056;2022-09-25T04:18:38;10.50;;;4.78;;
68432;SDS011;55412;51.350;17.056;2022-09-25T04:21:06;14.27;;;6.37;;
68432;SDS011;55412;51.350;17.056;2022-09-25T04:23:35;15.05;;;7.25;;
68432;SDS011;55412;51.350;17.056;2022-09-25T04:26:02;14.43;;;7.10;;
68432;SDS011;55412;51.350;17.056;2022-09-25T04:28:29;12.38;;;5.63;;
68432;SDS011;55412;51.350;17.056;2022-09-25T04:30:58;12.30;;;6.47;;
68432;SDS011;55412;51.350;17.056;2022-09-25T04:33:24;16.63;;;8.03;;
68432;SDS011;55412;51.350;17.056;2022-09-25T04:36:09;14.27;;;6.75;;
68432;SDS011;55412;51.350;17.056;2022-09-25T04:38:35;11.55;;;5.43;;
68432;SDS011;55412;51.350;17.056;2022-09-25T04:41:02;14.27;;;4.93;;
68432;SDS011;55412;51.350;17.056;2022-09-25T04:43:30;9.13;;;5.13;;
68432;SDS011;55412;51.350;17.056;2022-09-25T04:46:03;13.03;;;4.43;;
68432;SDS011;55412;51.350;17.056;2022-09-25T04:48:32;10.40;;;4.70;;
68432;SDS011;55412;51.350;17.056;2022-09-25T04:50:59;8.32;;;4.13;;
68432;SDS011;55412;51.350;17.056;2022-09-25T04:53:26;9.30;;;4.60;;
68432;SDS011;55412;51.350;17.056;2022-09-25T04:55:58;12.45;;;5.47;;
68432;SDS011;55412;51.350;17.056;2022-09-25T04:58:31;15.47;;;7.17;;
68432;SDS011;55412;51.350;17.056;2022-09-25T05:01:06;12.45;;;7.25;;
68432;SDS011;55412;51.350;17.056;2022-09-25T05:03:34;13.25;;;7.45;;
68432;SDS011;55412;51.350;17.056;2022-09-25T05:06:00;11.90;;;6.18;;
68432;SDS011;55412;51.350;17.056;2022-09-25T05:08:26;14.50;;;7.30;;
68432;SDS011;55412;51.350;17.056;2022-09-25T05:10:52;12.33;;;6.30;;
68432;SDS011;55412;51.350;17.056;2022-09-25T05:13:18;15.95;;;6.97;;
68432;SDS011;55412;51.350;17.056;2022-09-25T05:15:44;14.82;;;8.20;;
68432;SDS011;55412;51.350;17.056;2022-09-25T05:20:47;15.00;;;8.07;;
68432;SDS011;55412;51.350;17.056;2022-09-25T05:23:14;17.73;;;8.33;;
68432;SDS011;55412;51.350;17.056;2022-09-25T05:25:40;15.10;;;7.03;;
68432;SDS011;55412;51.350;17.056;2022-09-25T05:28:17;15.30;;;7.95;;
68432;SDS011;55412;51.350;17.056;2022-09-25T05:31:05;14.35;;;7.22;;
68432;SDS011;55412;51.350;17.056;2022-09-25T05:33:36;14.18;;;7.65;;
68432;SDS011;55412;51.350;17.056;2022-09-25T05:36:45;17.33;;;8.00;;
68432;SDS011;55412;51.350;17.056;2022-09-25T05:39:15;13.23;;;6.63;;
68432;SDS011;55412;51.350;17.056;2022-09-25T05:45:10;13.43;;;7.38;;
68432;SDS011;55412;51.350;17.056;2022-09-25T05:47:37;13.13;;;6.55;;
68432;SDS011;55412;51.350;17.056;2022-09-25T05:50:05;13.57;;;7.03;;
68432;SDS011;55412;51.350;17.056;2022-09-25T05:52:34;15.15;;;8.02;;
68432;SDS011;55412;51.350;17.056;2022-09-25T05:55:03;15.05;;;7.65;;
68432;SDS011;55412;51.350;17.056;2022-09-25T05:57:33;12.52;;;6.63;;
68432;SDS011;55412;51.350;17.056;2022-09-25T06:00:08;16.15;;;8.50;;
68432;SDS011;55412;51.350;17.056;2022-09-25T06:02:49;14.43;;;8.03;;
68432;SDS011;55412;51.350;17.056;2022-09-25T06:05:36;13.88;;;7.15;;
68432;SDS011;55412;51.350;17.056;2022-09-25T06:08:18;17.00;;;8.63;;
68432;SDS011;55412;51.350;17.056;2022-09-25T06:19:09;17.23;;;8.30;;
68432;SDS011;55412;51.350;17.056;2022-09-25T06:21:47;18.40;;;9.38;;
68432;SDS011;55412;51.350;17.056;2022-09-25T06:27:54;14.40;;;7.32;;
68432;SDS011;55412;51.350;17.056;2022-09-25T06:30:28;16.25;;;9.18;;
68432;SDS011;55412;51.350;17.056;2022-09-25T06:33:01;16.77;;;8.43;;
68432;SDS011;55412;51.350;17.056;2022-09-25T06:35:35;22.25;;;9.95;;
68432;SDS011;55412;51.350;17.056;2022-09-25T06:38:11;23.30;;;11.88;;
68432;SDS011;55412;51.350;17.056;2022-09-25T06:40:40;31.02;;;13.80;;
68432;SDS011;55412;51.350;17.056;2022-09-25T06:43:14;29.98;;;15.40;;
68432;SDS011;55412;51.350;17.056;2022-09-25T06:46:15;23.03;;;12.57;;
68432;SDS011;55412;51.350;17.056;2022-09-25T06:48:49;22.27;;;11.73;;
68432;SDS011;55412;51.350;17.056;2022-09-25T06:51:20;18.00;;;9.68;;
68432;SDS011;55412;51.350;17.056;2022-09-25T06:53:47;16.95;;;9.05;;
68432;SDS011;55412;51.350;17.056;2022-09-25T06:56:17;21.95;;;9.02;;
68432;SDS011;55412;51.350;17.056;2022-09-25T06:58:44;18.07;;;8.57;;
68432;SDS011;55412;51.350;17.056;2022-09-25T07:01:10;13.57;;;6.85;;
68432;SDS011;55412;51.350;17.056;2022-09-25T07:03:37;12.02;;;7.35;;
68432;SDS011;55412;51.350;17.056;2022-09-25T07:08:46;11.60;;;6.25;;
68432;SDS011;55412;51.350;17.056;2022-09-25T07:11:15;10.53;;;5.80;;
68432;SDS011;55412;51.350;17.056;2022-09-25T07:13:44;12.07;;;5.53;;
68432;SDS011;55412;51.350;17.056;2022-09-25T07:16:11;10.15;;;5.57;;
68432;SDS011;55412;51.350;17.056;2022-09-25T07:18:40;10.32;;;5.20;;
68432;SDS011;55412;51.350;17.056;2022-09-25T07:21:11;10.82;;;4.80;;
68432;SDS011;55412;51.350;17.056;2022-09-25T07:23:42;9.30;;;4.90;;
68432;SDS011;55412;51.350;17.056;2022-09-25T07:26:17;10.13;;;4.85;;
68432;SDS011;55412;51.350;17.056;2022-09-25T07:28:52;8.60;;;5.25;;
68432;SDS011;55412;51.350;17.056;2022-09-25T07:31:25;8.48;;;4.53;;
68432;SDS011;55412;51.350;17.056;2022-09-25T07:33:54;11.00;;;5.32;;
68432;SDS011;55412;51.350;17.056;2022-09-25T07:36:24;8.07;;;4.77;;
68432;SDS011;55412;51.350;17.056;2022-09-25T07:38:50;8.13;;;4.45;;
68432;SDS011;55412;51.350;17.056;2022-09-25T07:41:17;8.15;;;4.85;;
68432;SDS011;55412;51.350;17.056;2022-09-25T07:43:46;13.27;;;4.93;;
68432;SDS011;55412;51.350;17.056;2022-09-25T07:46:26;11.13;;;4.38;;
68432;SDS011;55412;51.350;17.056;2022-09-25T07:48:53;7.97;;;3.77;;
68432;SDS011;55412;51.350;17.056;2022-09-25T07:51:19;8.07;;;4.40;;
68432;SDS011;55412;51.350;17.056;2022-09-25T07:53:47;7.55;;;4.53;;
68432;SDS011;55412;51.350;17.056;2022-09-25T07:56:13;6.93;;;3.70;;
68432;SDS011;55412;51.350;17.056;2022-09-25T07:58:40;11.23;;;4.90;;
68432;SDS011;55412;51.350;17.056;2022-09-25T08:01:07;8.63;;;3.53;;
68432;SDS011;55412;51.350;17.056;2022-09-25T08:03:36;7.28;;;3.40;;
68432;SDS011;55412;51.350;17.056;2022-09-25T08:06:04;6.35;;;3.17;;
68432;SDS011;55412;51.350;17.056;2022-09-25T08:08:36;9.30;;;3.08;;
68432;SDS011;55412;51.350;17.056;2022-09-25T08:11:13;7.13;;;3.28;;
68432;SDS011;55412;51.350;17.056;2022-09-25T08:13:41;5.40;;;2.67;;
68432;SDS011;55412;51.350;17.056;2022-09-25T08:16:10;6.85;;;2.72;;
68432;SDS011;55412;51.350;17.056;2022-09-25T08:18:42;5.75;;;2.78;;
68432;SDS011;55412;51.350;17.056;2022-09-25T08:21:10;6.63;;;3.35;;
68432;SDS011;55412;51.350;17.056;2022-09-25T08:23:42;8.20;;;3.78;;
68432;SDS011;55412;51.350;17.056;2022-09-25T08:26:14;8.53;;;3.47;;
68432;SDS011;55412;51.350;17.056;2022-09-25T08:28:41;6.40;;;3.40;;
68432;SDS011;55412;51.350;17.056;2022-09-25T08:31:08;6.60;;;3.30;;
68432;SDS011;55412;51.350;17.056;2022-09-25T08:33:34;10.50;;;3.83;;
68432;SDS011;55412;51.350;17.056;2022-09-25T08:36:02;6.90;;;3.33;;
68432;SDS011;55412;51.350;17.056;2022-09-25T08:38:29;8.50;;;3.70;;
68432;SDS011;55412;51.350;17.056;2022-09-25T08:43:46;10.23;;;4.10;;
68432;SDS011;55412;51.350;17.056;2022-09-25T08:46:38;11.90;;;3.05;;
68432;SDS011;55412;51.350;17.056;2022-09-25T08:49:32;6.68;;;3.40;;
68432;SDS011;55412;51.350;17.056;2022-09-25T08:52:05;8.20;;;3.50;;
68432;SDS011;55412;51.350;17.056;2022-09-25T08:54:38;7.07;;;3.60;;
68432;SDS011;55412;51.350;17.056;2022-09-25T09:00:21;8.85;;;3.75;;
68432;SDS011;55412;51.350;17.056;2022-09-25T09:02:52;7.97;;;3.75;;
68432;SDS011;55412;51.350;17.056;2022-09-25T09:05:28;9.03;;;3.80;;
68432;SDS011;55412;51.350;17.056;2022-09-25T09:08:00;7.32;;;3.08;;
68432;SDS011;55412;51.350;17.056;2022-09-25T09:10:43;7.65;;;4.25;;
68432;SDS011;55412;51.350;17.056;2022-09-25T09:19:06;6.13;;;2.80;;
68432;SDS011;55412;51.350;17.056;2022-09-25T09:21:36;6.18;;;2.90;;
68432;SDS011;55412;51.350;17.056;2022-09-25T09:26:57;5.65;;;2.78;;
68432;SDS011;55412;51.350;17.056;2022-09-25T09:53:10;8.05;;;3.33;;
68432;SDS011;55412;51.350;17.056;2022-09-25T09:55:43;7.47;;;3.60;;
68432;SDS011;55412;51.350;17.056;2022-09-25T10:00:50;5.13;;;2.63;;
68432;SDS011;55412;51.350;17.056;2022-09-25T10:03:19;7.03;;;2.75;;
68432;SDS011;55412;51.350;17.056;2022-09-25T10:05:51;10.80;;;3.70;;
68432;SDS011;55412;51.350;17.056;2022-09-25T10:08:24;7.32;;;3.30;;
68432;SDS011;55412;51.350;17.056;2022-09-25T10:10:51;6.15;;;3.25;;
68432;SDS011;55412;51.350;17.056;2022-09-25T10:13:24;5.30;;;2.47;;
68432;SDS011;55412;51.350;17.056;2022-09-25T10:19:00;5.18;;;2.95;;
68432;SDS011;55412;51.350;17.056;2022-09-25T10:21:40;7.97;;;2.92;;
68432;SDS011;55412;51.350;17.056;2022-09-25T10:27:20;5.73;;;3.00;;
68432;SDS011;55412;51.350;17.056;2022-09-25T10:35:26;6.13;;;2.97;;
68432;SDS011;55412;51.350;17.056;2022-09-25T10:38:02;6.82;;;2.42;;
68432;SDS011;55412;51.350;17.056;2022-09-25T10:40:36;6.63;;;2.17;;
68432;SDS011;55412;51.350;17.056;2022-09-25T10:46:03;5.32;;;2.58;;
68432;SDS011;55412;51.350;17.056;2022-09-25T10:48:38;4.80;;;2.40;;
68432;SDS011;55412;51.350;17.056;2022-09-25T10:51:23;5.07;;;2.05;;
68432;SDS011;55412;51.350;17.056;2022-09-25T10:54:33;7.13;;;3.00;;
68432;SDS011;55412;51.350;17.056;2022-09-25T10:56:40;6.28;;;3.03;;
68432;SDS011;55412;51.350;17.056;2022-09-25T10:59:19;6.00;;;2.70;;
68432;SDS011;55412;51.350;17.056;2022-09-25T11:01:47;5.50;;;2.83;;
68432;SDS011;55412;51.350;17.056;2022-09-25T11:04:28;5.85;;;2.70;;
68432;SDS011;55412;51.350;17.056;2022-09-25T11:06:59;4.87;;;2.10;;
68432;SDS011;55412;51.350;17.056;2022-09-25T11:09:29;5.32;;;2.70;;
68432;SDS011;55412;51.350;17.056;2022-09-25T11:15:01;5.38;;;2.40;;
68432;SDS011;55412;51.350;17.056;2022-09-25T11:17:31;7.00;;;2.72;;
68432;SDS011;55412;51.350;17.056;2022-09-25T11:26:19;7.35;;;3.05;;
68432;SDS011;55412;51.350;17.056;2022-09-25T11:28:56;5.72;;;2.50;;
68432;SDS011;55412;51.350;17.056;2022-09-25T11:31:41;5.32;;;2.55;;
68432;SDS011;55412;51.350;17.056;2022-09-25T11:41:17;6.68;;;3.03;;
68432;SDS011;55412;51.350;17.056;2022-09-25T11:50:10;6.47;;;2.73;;
68432;SDS011;55412;51.350;17.056;2022-09-25T11:56:02;6.50;;;2.60;;
68432;SDS011;55412;51.350;17.056;2022-09-25T11:59:04;5.32;;;2.33;;
68432;SDS011;55412;51.350;17.056;2022-09-25T12:01:47;5.47;;;2.53;;
68432;SDS011;55412;51.350;17.056;2022-09-25T12:18:03;5.63;;;2.37;;
68432;SDS011;55412;51.350;17.056;2022-09-25T12:20:58;6.03;;;2.83;;
68432;SDS011;55412;51.350;17.056;2022-09-25T12:23:35;6.53;;;3.20;;
68432;SDS011;55412;51.350;17.056;2022-09-25T12:26:33;11.00;;;2.95;;
68432;SDS011;55412;51.350;17.056;2022-09-25T12:32:45;5.67;;;2.33;;
68432;SDS011;55412;51.350;17.056;2022-09-25T12:47:06;7.60;;;2.77;;
68432;SDS011;55412;51.350;17.056;2022-09-25T12:49:46;5.57;;;2.58;;
68432;SDS011;55412;51.350;17.056;2022-09-25T12:52:29;7.00;;;2.83;;
68432;SDS011;55412;51.350;17.056;2022-09-25T12:55:04;5.40;;;2.65;;
68432;SDS011;55412;51.350;17.056;2022-09-25T12:57:48;4.57;;;1.77;;
68432;SDS011;55412;51.350;17.056;2022-09-25T13:00:30;6.10;;;2.10;;
68432;SDS011;55412;51.350;17.056;2022-09-25T13:03:07;8.05;;;1.90;;
68432;SDS011;55412;51.350;17.056;2022-09-25T13:09:11;8.18;;;2.90;;
68432;SDS011;55412;51.350;17.056;2022-09-25T13:11:58;6.25;;;2.45;;
68432;SDS011;55412;51.350;17.056;2022-09-25T13:14:47;5.93;;;2.30;;
68432;SDS011;55412;51.350;17.056;2022-09-25T13:17:40;5.70;;;2.30;;
68432;SDS011;55412;51.350;17.056;2022-09-25T13:23:25;5.68;;;2.58;;
68432;SDS011;55412;51.350;17.056;2022-09-25T13:26:12;4.45;;;2.17;;
68432;SDS011;55412;51.350;17.056;2022-09-25T13:31:29;5.40;;;2.10;;
68432;SDS011;55412;51.350;17.056;2022-09-25T13:34:04;4.90;;;2.05;;
68432;SDS011;55412;51.350;17.056;2022-09-25T13:36:49;5.32;;;2.28;;
68432;SDS011;55412;51.350;17.056;2022-09-25T13:42:24;4.80;;;2.20;;
68432;SDS011;55412;51.350;17.056;2022-09-25T13:44:56;5.65;;;2.00;;
68432;SDS011;55412;51.350;17.056;2022-09-25T13:58:23;8.63;;;2.20;;
68432;SDS011;55412;51.350;17.056;2022-09-25T14:00:53;5.35;;;2.40;;
68432;SDS011;55412;51.350;17.056;2022-09-25T14:06:31;4.53;;;1.73;;
68432;SDS011;55412;51.350;17.056;2022-09-25T14:08:57;4.90;;;2.13;;
68432;SDS011;55412;51.350;17.056;2022-09-25T14:11:32;4.60;;;1.95;;
68432;SDS011;55412;51.350;17.056;2022-09-25T14:14:14;6.88;;;2.33;;
68432;SDS011;55412;51.350;17.056;2022-09-25T14:17:13;5.72;;;2.55;;
68432;SDS011;55412;51.350;17.056;2022-09-25T14:19:43;6.43;;;2.67;;
68432;SDS011;55412;51.350;17.056;2022-09-25T14:22:18;5.30;;;2.60;;
68432;SDS011;55412;51.350;17.056;2022-09-25T14:25:24;4.57;;;2.17;;
68432;SDS011;55412;51.350;17.056;2022-09-25T14:28:24;4.70;;;2.00;;
68432;SDS011;55412;51.350;17.056;2022-09-25T14:31:00;7.82;;;2.35;;
68432;SDS011;55412;51.350;17.056;2022-09-25T14:33:50;4.78;;;2.40;;
68432;SDS011;55412;51.350;17.056;2022-09-25T14:39:27;4.45;;;2.10;;
68432;SDS011;55412;51.350;17.056;2022-09-25T14:47:18;5.40;;;2.75;;
68432;SDS011;55412;51.350;17.056;2022-09-25T14:49:48;5.93;;;2.57;;
68432;SDS011;55412;51.350;17.056;2022-09-25T14:52:20;5.03;;;2.13;;
68432;SDS011;55412;51.350;17.056;2022-09-25T14:54:52;6.50;;;2.65;;
68432;SDS011;55412;51.350;17.056;2022-09-25T14:57:25;5.95;;;2.45;;
68432;SDS011;55412;51.350;17.056;2022-09-25T14:59:59;5.03;;;2.38;;
68432;SDS011;55412;51.350;17.056;2022-09-25T15:02:32;5.23;;;2.63;;
68432;SDS011;55412;51.350;17.056;2022-09-25T15:05:16;5.75;;;2.65;;
68432;SDS011;55412;51.350;17.056;2022-09-25T15:07:56;7.35;;;2.92;;
68432;SDS011;55412;51.350;17.056;2022-09-25T15:10:28;22.08;;;5.47;;
68432;SDS011;55412;51.350;17.056;2022-09-25T15:15:44;12.83;;;5.50;;
68432;SDS011;55412;51.350;17.056;2022-09-25T15:18:42;10.77;;;3.55;;
68432;SDS011;55412;51.350;17.056;2022-09-25T15:21:25;7.55;;;3.45;;
68432;SDS011;55412;51.350;17.056;2022-09-25T15:23:57;10.88;;;2.83;;
68432;SDS011;55412;51.350;17.056;2022-09-25T15:26:49;6.20;;;3.25;;
68432;SDS011;55412;51.350;17.056;2022-09-25T15:29:20;6.43;;;2.60;;
68432;SDS011;55412;51.350;17.056;2022-09-25T15:31:49;7.65;;;3.50;;
68432;SDS011;55412;51.350;17.056;2022-09-25T15:34:21;11.68;;;4.35;;
68432;SDS011;55412;51.350;17.056;2022-09-25T15:37:05;10.68;;;4.22;;
68432;SDS011;55412;51.350;17.056;2022-09-25T15:43:47;9.80;;;3.23;;
68432;SDS011;55412;51.350;17.056;2022-09-25T15:49:02;10.50;;;3.65;;
68432;SDS011;55412;51.350;17.056;2022-09-25T15:51:31;10.30;;;4.22;;
68432;SDS011;55412;51.350;17.056;2022-09-25T15:56:50;5.87;;;3.17;;
68432;SDS011;55412;51.350;17.056;2022-09-25T15:59:25;7.47;;;2.95;;
68432;SDS011;55412;51.350;17.056;2022-09-25T16:02:15;6.15;;;2.92;;
68432;SDS011;55412;51.350;17.056;2022-09-25T16:05:03;6.50;;;3.05;;
68432;SDS011;55412;51.350;17.056;2022-09-25T16:07:35;7.40;;;3.03;;
68432;SDS011;55412;51.350;17.056;2022-09-25T16:10:29;9.40;;;4.53;;
68432;SDS011;55412;51.350;17.056;2022-09-25T16:12:49;8.52;;;3.50;;
68432;SDS011;55412;51.350;17.056;2022-09-25T16:17:58;8.70;;;3.20;;
68432;SDS011;55412;51.350;17.056;2022-09-25T16:20:45;5.30;;;2.72;;
68432;SDS011;55412;51.350;17.056;2022-09-25T16:23:48;7.93;;;2.50;;
68432;SDS011;55412;51.350;17.056;2022-09-25T16:31:40;6.90;;;2.47;;
68432;SDS011;55412;51.350;17.056;2022-09-25T16:34:19;6.15;;;2.75;;
68432;SDS011;55412;51.350;17.056;2022-09-25T16:37:02;5.10;;;2.20;;
68432;SDS011;55412;51.350;17.056;2022-09-25T16:39:45;5.72;;;2.53;;
68432;SDS011;55412;51.350;17.056;2022-09-25T16:42:40;6.00;;;2.70;;
68432;SDS011;55412;51.350;17.056;2022-09-25T16:45:39;6.28;;;2.78;;
68432;SDS011;55412;51.350;17.056;2022-09-25T16:48:56;7.35;;;3.33;;
68432;SDS011;55412;51.350;17.056;2022-09-25T16:50:52;8.13;;;3.20;;
68432;SDS011;55412;51.350;17.056;2022-09-25T16:53:19;9.77;;;2.95;;
68432;SDS011;55412;51.350;17.056;2022-09-25T16:55:51;6.95;;;3.63;;
68432;SDS011;55412;51.350;17.056;2022-09-25T16:58:20;10.40;;;3.47;;
68432;SDS011;55412;51.350;17.056;2022-09-25T17:00:47;5.97;;;3.20;;
68432;SDS011;55412;51.350;17.056;2022-09-25T17:03:15;6.20;;;2.90;;
68432;SDS011;55412;51.350;17.056;2022-09-25T17:05:42;7.00;;;3.78;;
68432;SDS011;55412;51.350;17.056;2022-09-25T17:08:14;8.57;;;3.10;;
68432;SDS011;55412;51.350;17.056;2022-09-25T17:10:44;10.07;;;3.50;;
68432;SDS011;55412;51.350;17.056;2022-09-25T17:13:16;6.97;;;2.92;;
68432;SDS011;55412;51.350;17.056;2022-09-25T17:15:51;5.87;;;2.50;;
68432;SDS011;55412;51.350;17.056;2022-09-25T17:18:20;6.65;;;3.15;;
68432;SDS011;55412;51.350;17.056;2022-09-25T17:20:50;8.05;;;3.20;;
68432;SDS011;55412;51.350;17.056;2022-09-25T17:23:19;6.18;;;3.10;;
68432;SDS011;55412;51.350;17.056;2022-09-25T17:25:49;6.75;;;3.85;;
68432;SDS011;55412;51.350;17.056;2022-09-25T17:28:24;7.17;;;3.07;;
68432;SDS011;55412;51.350;17.056;2022-09-25T17:30:51;5.32;;;3.08;;
68432;SDS011;55412;51.350;17.056;2022-09-25T17:33:18;8.02;;;3.42;;
68432;SDS011;55412;51.350;17.056;2022-09-25T17:35:51;7.80;;;3.63;;
68432;SDS011;55412;51.350;17.056;2022-09-25T17:38:28;6.85;;;3.45;;
68432;SDS011;55412;51.350;17.056;2022-09-25T17:40:56;10.43;;;3.50;;
68432;SDS011;55412;51.350;17.056;2022-09-25T17:43:26;8.45;;;4.10;;
68432;SDS011;55412;51.350;17.056;2022-09-25T17:45:58;9.27;;;4.35;;
68432;SDS011;55412;51.350;17.056;2022-09-25T17:48:27;10.05;;;3.70;;
68432;SDS011;55412;51.350;17.056;2022-09-25T17:50:59;8.05;;;3.63;;
68432;SDS011;55412;51.350;17.056;2022-09-25T17:53:34;7.47;;;3.50;;
68432;SDS011;55412;51.350;17.056;2022-09-25T17:56:01;10.18;;;3.63;;
68432;SDS011;55412;51.350;17.056;2022-09-25T17:58:27;10.82;;;3.83;;
68432;SDS011;55412;51.350;17.056;2022-09-25T18:00:57;11.10;;;4.80;;
68432;SDS011;55412;51.350;17.056;2022-09-25T18:03:25;9.50;;;5.43;;
68432;SDS011;55412;51.350;17.056;2022-09-25T18:05:58;11.97;;;5.23;;
68432;SDS011;55412;51.350;17.056;2022-09-25T18:08:26;14.25;;;6.57;;
68432;SDS011;55412;51.350;17.056;2022-09-25T18:10:55;18.10;;;7.93;;
68432;SDS011;55412;51.350;17.056;2022-09-25T18:13:23;15.35;;;7.05;;
68432;SDS011;55412;51.350;17.056;2022-09-25T18:15:54;16.42;;;8.18;;
68432;SDS011;55412;51.350;17.056;2022-09-25T18:18:23;22.50;;;8.37;;
68432;SDS011;55412;51.350;17.056;2022-09-25T18:21:09;17.45;;;8.80;;
68432;SDS011;55412;51.350;17.056;2022-09-25T18:23:54;16.70;;;7.57;;
68432;SDS011;55412;51.350;17.056;2022-09-25T18:26:21;17.33;;;7.85;;
68432;SDS011;55412;51.350;17.056;2022-09-25T18:28:47;15.88;;;7.53;;
68432;SDS011;55412;51.350;17.056;2022-09-25T18:31:15;14.33;;;6.87;;
68432;SDS011;55412;51.350;17.056;2022-09-25T18:33:41;10.68;;;5.72;;
68432;SDS011;55412;51.350;17.056;2022-09-25T18:36:07;17.35;;;8.57;;
68432;SDS011;55412;51.350;17.056;2022-09-25T18:38:34;20.83;;;9.18;;
68432;SDS011;55412;51.350;17.056;2022-09-25T18:41:00;19.38;;;8.05;;
68432;SDS011;55412;51.350;17.056;2022-09-25T18:43:28;42.17;;;9.20;;
68432;SDS011;55412;51.350;17.056;2022-09-25T18:45:55;20.90;;;9.55;;